createdAt,value
2022-11-05T00:00:52.029Z,98673.31
2022-11-05T00:03:20.049Z,98668.06
2022-11-05T00:05:49.721Z,98655.94
2022-11-05T00:08:17.524Z,98661.00
2022-11-05T00:10:45.455Z,98660.41
2022-11-05T00:13:13.696Z,98655.22
2022-11-05T00:15:41.293Z,98654.00
2022-11-05T00:18:09.133Z,98658.13
2022-11-05T00:20:36.813Z,98671.69
2022-11-05T00:23:05.696Z,98662.25
2022-11-05T00:25:33.585Z,98658.53
2022-11-05T00:28:02.292Z,98663.22
2022-11-05T00:30:30.279Z,98661.19
2022-11-05T00:33:01.266Z,98662.84
2022-11-05T00:35:29.116Z,98672.50
2022-11-05T00:37:56.810Z,98671.09
2022-11-05T00:40:24.674Z,98674.78
2022-11-05T00:42:52.214Z,98679.81
2022-11-05T00:45:20.041Z,98685.94
2022-11-05T00:47:48.562Z,98683.75
2022-11-05T00:50:17.129Z,98678.62
2022-11-05T00:52:44.752Z,98690.53
2022-11-05T00:55:12.702Z,98680.88
2022-11-05T00:57:40.374Z,98668.59
2022-11-05T01:00:08.618Z,98659.50
2022-11-05T01:02:36.730Z,98653.94
2022-11-05T01:05:04.809Z,98665.91
2022-11-05T01:07:32.387Z,98679.38
2022-11-05T01:10:04.658Z,98687.81
2022-11-05T01:12:32.313Z,98684.16
2022-11-05T01:15:00.213Z,98676.16
2022-11-05T01:17:27.750Z,98679.66
2022-11-05T01:19:55.466Z,98682.28
2022-11-05T01:22:23.387Z,98670.25
2022-11-05T01:24:50.966Z,98670.25
2022-11-05T01:27:18.665Z,98672.75
2022-11-05T01:29:47.739Z,98678.00
2022-11-05T01:32:15.368Z,98685.97
2022-11-05T01:34:42.994Z,98693.69
2022-11-05T01:37:10.966Z,98700.47
2022-11-05T01:39:38.569Z,98691.78
2022-11-05T01:42:19.972Z,98681.22
2022-11-05T01:44:58.863Z,98672.25
2022-11-05T01:47:31.819Z,98675.69
2022-11-05T01:50:07.138Z,98674.28
2022-11-05T01:52:35.731Z,98676.00
2022-11-05T01:55:04.059Z,98678.03
2022-11-05T01:57:32.475Z,98681.50
2022-11-05T02:00:01.511Z,98686.44
2022-11-05T02:02:31.230Z,98679.38
2022-11-05T02:05:01.437Z,98674.00
2022-11-05T02:07:29.737Z,98672.91
2022-11-05T02:10:13.285Z,98681.16
2022-11-05T02:12:44.525Z,98689.84
2022-11-05T02:15:14.232Z,98690.31
2022-11-05T02:18:23.491Z,98688.75
2022-11-05T02:21:03.079Z,98685.94
2022-11-05T02:23:36.727Z,98676.09
2022-11-05T02:26:34.843Z,98667.41
2022-11-05T02:29:11.676Z,98683.03
2022-11-05T02:32:07.426Z,98691.41
2022-11-05T02:34:47.184Z,98700.72
2022-11-05T02:37:22.080Z,98697.56
2022-11-05T02:40:13.549Z,98700.66
2022-11-05T02:42:56.191Z,98692.78
2022-11-05T02:45:46.497Z,98696.09
2022-11-05T02:48:22.764Z,98696.25
2022-11-05T02:51:05.833Z,98692.34
2022-11-05T02:53:41.605Z,98696.56
2022-11-05T02:56:22.664Z,98705.91
2022-11-05T02:58:51.596Z,98710.97
2022-11-05T03:01:19.581Z,98715.84
2022-11-05T03:03:51.231Z,98716.34
2022-11-05T03:06:37.537Z,98730.38
2022-11-05T03:09:23.648Z,98731.13
2022-11-05T03:12:09.845Z,98737.72
2022-11-05T03:15:05.233Z,98742.03
2022-11-05T03:17:46.190Z,98743.16
2022-11-05T03:20:21.303Z,98753.56
2022-11-05T03:23:05.551Z,98756.03
2022-11-05T03:25:37.543Z,98757.16
2022-11-05T03:28:06.717Z,98767.38
2022-11-05T03:30:35.740Z,98771.97
2022-11-05T03:33:17.394Z,98770.84
2022-11-05T03:35:48.302Z,98766.37
2022-11-05T03:38:21.467Z,98765.75
2022-11-05T03:40:54.198Z,98770.66
2022-11-05T03:43:25.196Z,98756.59
2022-11-05T03:45:58.466Z,98758.50
2022-11-05T03:48:27.651Z,98761.59
2022-11-05T03:51:13.093Z,98761.84
2022-11-05T03:53:48.332Z,98764.13
2022-11-05T03:56:29.814Z,98760.97
2022-11-05T03:58:59.470Z,98755.06
2022-11-05T04:01:28.142Z,98759.81
2022-11-05T04:03:56.228Z,98752.81
2022-11-05T04:06:23.799Z,98756.00
2022-11-05T04:08:51.545Z,98752.88
2022-11-05T04:11:19.459Z,98754.75
2022-11-05T04:13:47.388Z,98758.22
2022-11-05T04:16:14.928Z,98753.50
2022-11-05T04:18:43.200Z,98756.66
2022-11-05T04:21:11.108Z,98745.63
2022-11-05T04:23:38.757Z,98743.16
2022-11-05T04:26:06.658Z,98747.97
2022-11-05T04:28:34.329Z,98751.09
2022-11-05T04:31:02.178Z,98747.66
2022-11-05T04:33:30.075Z,98752.22
2022-11-05T04:35:57.696Z,98744.16
2022-11-05T04:38:25.314Z,98743.19
2022-11-05T04:40:53.191Z,98745.56
2022-11-05T04:43:21.160Z,98744.84
2022-11-05T04:45:49.253Z,98744.19
2022-11-05T04:48:17.197Z,98743.19
2022-11-05T04:50:44.748Z,98740.25
2022-11-05T04:53:12.693Z,98736.91
2022-11-05T04:55:40.856Z,98736.13
2022-11-05T04:58:09.144Z,98747.50
2022-11-05T05:00:36.808Z,98753.63
2022-11-05T05:03:04.734Z,98757.59
2022-11-05T05:05:32.370Z,98749.34
2022-11-05T05:08:04.284Z,98757.19
2022-11-05T05:10:32.680Z,98752.84
2022-11-05T05:13:00.287Z,98750.25
2022-11-05T05:15:27.839Z,98755.62
2022-11-05T05:17:55.774Z,98751.56
2022-11-05T05:20:23.799Z,98755.50
2022-11-05T05:22:52.855Z,98753.78
2022-11-05T05:25:21.116Z,98751.81
2022-11-05T05:27:48.789Z,98749.75
2022-11-05T05:30:16.875Z,98752.34
2022-11-05T05:32:44.727Z,98747.56
2022-11-05T05:35:12.404Z,98755.91
2022-11-05T05:37:40.088Z,98751.72
2022-11-05T05:40:08.580Z,98754.09
2022-11-05T05:42:42.707Z,98764.31
2022-11-05T05:45:11.955Z,98761.44
2022-11-05T05:47:39.602Z,98767.72
2022-11-05T05:50:07.464Z,98765.28
2022-11-05T05:52:35.534Z,98758.97
2022-11-05T05:55:03.486Z,98764.94
2022-11-05T05:57:31.119Z,98769.06
2022-11-05T05:59:59.023Z,98762.59
2022-11-05T06:02:26.814Z,98776.94
2022-11-05T06:04:54.780Z,98790.31
2022-11-05T06:07:22.546Z,98794.19
2022-11-05T06:09:50.518Z,98800.59
2022-11-05T06:12:18.444Z,98813.19
2022-11-05T06:14:46.213Z,98824.34
2022-11-05T06:17:13.817Z,98826.66
2022-11-05T06:19:41.694Z,98829.63
2022-11-05T06:22:09.275Z,98831.47
2022-11-05T06:24:36.890Z,98831.31
2022-11-05T06:27:04.983Z,98843.59
2022-11-05T06:29:32.517Z,98845.53
2022-11-05T06:32:00.219Z,98845.09
2022-11-05T06:34:28.240Z,98848.47
2022-11-05T06:36:55.874Z,98844.75
2022-11-05T06:39:23.518Z,98848.78
2022-11-05T06:42:16.478Z,98853.09
2022-11-05T06:44:38.918Z,98852.03
2022-11-05T06:47:06.747Z,98852.78
2022-11-05T06:49:34.473Z,98855.28
2022-11-05T06:52:02.101Z,98849.06
2022-11-05T06:54:30.427Z,98852.59
2022-11-05T06:56:57.989Z,98857.16
2022-11-05T06:59:25.869Z,98854.53
2022-11-05T07:01:53.812Z,98853.13
2022-11-05T07:04:21.601Z,98844.69
2022-11-05T07:06:50.204Z,98851.63
2022-11-05T07:09:18.149Z,98846.81
2022-11-05T07:11:45.827Z,98851.53
2022-11-05T07:14:13.428Z,98851.88
2022-11-05T07:16:41.397Z,98854.53
2022-11-05T07:19:09.094Z,98847.06
2022-11-05T07:21:36.851Z,98857.84
2022-11-05T07:24:05.324Z,98859.53
2022-11-05T07:26:34.639Z,98847.59
2022-11-05T07:29:02.506Z,98839.34
2022-11-05T07:31:30.667Z,98848.53
2022-11-05T07:33:58.296Z,98848.16
2022-11-05T07:36:25.949Z,98845.06
2022-11-05T07:38:59.066Z,98843.78
2022-11-05T07:41:27.998Z,98843.34
2022-11-05T07:43:55.943Z,98849.78
2022-11-05T07:46:23.518Z,98851.88
2022-11-05T07:48:51.059Z,98852.28
2022-11-05T07:51:21.967Z,98860.81
2022-11-05T07:53:49.936Z,98861.91
2022-11-05T07:56:17.647Z,98859.97
2022-11-05T07:58:48.192Z,98871.22
2022-11-05T08:01:15.968Z,98870.06
2022-11-05T08:03:44.089Z,98863.44
2022-11-05T08:06:11.706Z,98873.84
2022-11-05T08:08:39.358Z,98885.97
2022-11-05T08:11:09.045Z,98881.28
2022-11-05T08:13:37.148Z,98875.38
2022-11-05T08:16:05.176Z,98875.91
2022-11-05T08:18:33.173Z,98874.38
2022-11-05T08:21:04.882Z,98868.25
2022-11-05T08:23:33.033Z,98865.63
2022-11-05T08:26:03.326Z,98860.84
2022-11-05T08:28:30.965Z,98876.19
2022-11-05T08:30:58.596Z,98874.97
2022-11-05T08:33:27.009Z,98862.88
2022-11-05T08:35:54.546Z,98854.06
2022-11-05T08:38:22.296Z,98856.09
2022-11-05T08:40:55.866Z,98860.59
2022-11-05T08:43:23.880Z,98873.34
2022-11-05T08:45:51.886Z,98873.50
2022-11-05T08:48:19.777Z,98866.88
2022-11-05T08:50:48.761Z,98876.69
2022-11-05T08:53:16.746Z,98869.62
2022-11-05T08:55:44.625Z,98877.88
2022-11-05T08:58:15.538Z,98886.91
2022-11-05T09:00:48.472Z,98878.34
2022-11-05T09:03:17.196Z,98880.34
2022-11-05T09:05:45.059Z,98896.53
2022-11-05T09:08:15.008Z,98897.97
2022-11-05T09:10:43.510Z,98899.44
2022-11-05T09:13:17.913Z,98896.41
2022-11-05T09:15:48.093Z,98903.81
2022-11-05T09:18:16.565Z,98901.59
2022-11-05T09:20:44.465Z,98912.19
2022-11-05T09:23:12.838Z,98927.63
2022-11-05T09:25:41.303Z,98919.53
2022-11-05T09:28:17.426Z,98917.72
2022-11-05T09:30:50.413Z,98920.81
2022-11-05T09:33:19.778Z,98926.72
2022-11-05T09:35:48.303Z,98926.53
2022-11-05T09:38:16.347Z,98926.87
2022-11-05T09:40:59.316Z,98921.16
2022-11-05T09:43:36.436Z,98925.31
2022-11-05T09:46:11.840Z,98926.59
2022-11-05T09:48:40.617Z,98927.81
2022-11-05T09:51:09.932Z,98926.97
2022-11-05T09:53:40.120Z,98929.66
2022-11-05T09:56:19.225Z,98933.75
2022-11-05T09:58:51.944Z,98931.22
2022-11-05T10:01:26.955Z,98931.69
2022-11-05T10:03:57.463Z,98934.75
2022-11-05T10:06:26.537Z,98933.47
2022-11-05T10:09:40.637Z,98934.28
2022-11-05T10:12:14.150Z,98927.66
2022-11-05T10:14:50.230Z,98922.59
2022-11-05T10:17:22.085Z,98913.56
2022-11-05T10:20:15.281Z,98906.62
2022-11-05T10:22:49.156Z,98910.56
2022-11-05T10:25:20.042Z,98919.44
2022-11-05T10:27:52.107Z,98905.47
2022-11-05T10:30:20.836Z,98906.47
2022-11-05T10:32:53.045Z,98905.34
2022-11-05T10:35:22.499Z,98903.09
2022-11-05T10:37:51.603Z,98915.94
2022-11-05T10:40:52.056Z,98912.72
2022-11-05T10:43:28.106Z,98914.16
2022-11-05T10:46:24.538Z,98917.00
2022-11-05T10:49:00.617Z,98915.69
2022-11-05T10:51:28.664Z,98928.31
2022-11-05T10:54:02.157Z,98930.22
2022-11-05T10:56:38.379Z,98935.44
2022-11-05T10:59:19.823Z,98939.03
2022-11-05T11:01:48.229Z,98937.59
2022-11-05T11:04:21.373Z,98949.44
2022-11-05T11:06:54.009Z,98940.78
2022-11-05T11:09:31.830Z,98944.09
2022-11-05T11:12:02.567Z,98949.81
2022-11-05T11:14:32.823Z,98940.63
2022-11-05T11:17:26.760Z,98959.34
2022-11-05T11:20:33.833Z,98956.25
2022-11-05T11:23:27.705Z,98954.75
2022-11-05T11:26:03.594Z,98964.13
2022-11-05T11:28:48.378Z,98960.03
2022-11-05T11:31:22.418Z,98943.91
2022-11-05T11:34:06.098Z,98948.16
2022-11-05T11:36:45.881Z,98949.84
2022-11-05T11:39:25.602Z,98954.75
2022-11-05T11:41:59.770Z,98947.53
2022-11-05T11:44:30.814Z,98950.06
2022-11-05T11:47:04.362Z,98952.06
2022-11-05T11:49:38.018Z,98950.03
2022-11-05T11:52:12.393Z,98951.84
2022-11-05T11:54:40.075Z,98949.50
2022-11-05T11:57:28.241Z,98940.69
2022-11-05T12:00:12.693Z,98939.63
2022-11-05T12:03:03.783Z,98948.50
2022-11-05T12:05:37.572Z,98954.19
2022-11-05T12:08:27.292Z,98957.47
2022-11-05T12:11:01.838Z,98955.66
2022-11-05T12:13:38.972Z,98962.16
2022-11-05T12:16:17.518Z,98967.50
2022-11-05T12:19:06.466Z,98960.12
2022-11-05T12:21:52.996Z,98963.84
2022-11-05T12:24:46.367Z,98960.91
2022-11-05T12:27:26.074Z,98965.59
2022-11-05T12:30:02.902Z,98974.47
2022-11-05T12:33:01.468Z,98982.16
2022-11-05T12:36:08.116Z,98984.94
2022-11-05T12:38:47.790Z,98982.56
2022-11-05T12:41:26.607Z,98983.59
2022-11-05T12:44:15.514Z,98982.94
2022-11-05T12:47:03.592Z,98985.25
2022-11-05T12:49:33.776Z,98988.13
2022-11-05T12:52:25.299Z,98989.97
2022-11-05T12:55:24.822Z,98992.75
2022-11-05T12:57:55.170Z,98996.09
2022-11-05T13:00:24.986Z,98995.28
2022-11-05T13:03:11.297Z,98995.50
2022-11-05T13:05:43.501Z,98994.06
2022-11-05T13:08:19.697Z,98999.88
2022-11-05T13:10:50.400Z,99003.28
2022-11-05T13:13:27.487Z,98999.88
2022-11-05T13:16:05.311Z,98994.50
2022-11-05T13:18:45.503Z,98997.13
2022-11-05T13:21:14.342Z,98986.94
2022-11-05T13:24:06.972Z,98987.69
2022-11-05T13:26:54.301Z,98990.84
2022-11-05T13:29:35.372Z,98987.69
2022-11-05T13:32:24.467Z,98995.09
2022-11-05T13:34:55.806Z,98999.44
2022-11-05T13:37:42.587Z,99000.69
2022-11-05T13:40:16.369Z,99013.25
2022-11-05T13:42:59.381Z,99016.94
2022-11-05T13:46:06.413Z,99021.12
2022-11-05T13:48:57.928Z,99020.22
2022-11-05T13:51:44.734Z,99012.72
2022-11-05T13:54:35.113Z,99018.75
2022-11-05T13:57:07.706Z,99024.41
2022-11-05T13:59:45.425Z,99031.19
2022-11-05T14:02:15.059Z,99029.62
2022-11-05T14:04:48.694Z,99036.31
2022-11-05T14:07:24.046Z,99033.37
2022-11-05T14:09:57.768Z,99035.56
2022-11-05T14:12:31.322Z,99050.56
2022-11-05T14:15:04.050Z,99041.37
2022-11-05T14:17:33.121Z,99050.56
2022-11-05T14:20:01.175Z,99049.69
2022-11-05T14:22:31.614Z,99053.31
2022-11-05T14:25:00.546Z,99057.75
2022-11-05T14:27:31.378Z,99052.06
2022-11-05T14:29:59.310Z,99049.50
2022-11-05T14:32:42.548Z,99057.31
2022-11-05T14:35:16.435Z,99062.34
2022-11-05T14:37:53.417Z,99060.78
2022-11-05T14:40:21.610Z,99071.37
2022-11-05T14:42:54.601Z,99064.59
2022-11-05T14:45:29.675Z,99069.31
2022-11-05T14:48:03.704Z,99065.88
2022-11-05T14:50:35.435Z,99066.62
2022-11-05T14:53:30.469Z,99066.03
2022-11-05T14:56:02.451Z,99064.13
2022-11-05T14:58:33.174Z,99067.31
2022-11-05T15:01:04.083Z,99068.56
2022-11-05T15:03:46.952Z,99069.34
2022-11-05T15:06:35.768Z,99071.28
2022-11-05T15:09:03.299Z,99077.16
2022-11-05T15:11:37.344Z,99069.41
2022-11-05T15:14:12.904Z,99064.00
2022-11-05T15:16:49.193Z,99072.25
2022-11-05T15:19:29.761Z,99078.44
2022-11-05T15:21:59.845Z,99071.94
2022-11-05T15:24:28.037Z,99081.00
2022-11-05T15:27:34.554Z,99076.06
2022-11-05T15:30:15.713Z,99076.88
2022-11-05T15:32:43.540Z,99084.91
2022-11-05T15:35:27.020Z,99083.97
2022-11-05T15:38:01.666Z,99093.00
2022-11-05T15:40:33.049Z,99098.53
2022-11-05T15:43:17.380Z,99096.19
2022-11-05T15:46:07.725Z,99099.50
2022-11-05T15:48:36.092Z,99107.88
2022-11-05T15:51:04.075Z,99097.75
2022-11-05T15:54:23.739Z,99102.66
2022-11-05T15:56:51.493Z,99108.97
2022-11-05T15:59:20.863Z,99117.41
2022-11-05T16:01:51.553Z,99115.94
2022-11-05T16:04:23.070Z,99123.56
2022-11-05T16:06:58.333Z,99128.94
2022-11-05T16:09:32.391Z,99128.47
2022-11-05T16:12:18.492Z,99130.19
2022-11-05T16:15:08.474Z,99121.66
2022-11-05T16:17:51.062Z,99126.72
2022-11-05T16:20:24.200Z,99126.88
2022-11-05T16:23:24.178Z,99123.72
2022-11-05T16:25:52.294Z,99131.47
2022-11-05T16:28:28.524Z,99131.16
2022-11-05T16:31:01.603Z,99132.91
2022-11-05T16:33:38.968Z,99134.78
2022-11-05T16:36:08.138Z,99137.34
2022-11-05T16:38:35.792Z,99129.56
2022-11-05T16:41:03.745Z,99135.53
2022-11-05T16:43:31.807Z,99136.69
2022-11-05T16:46:03.335Z,99138.06
2022-11-05T16:48:31.643Z,99142.75
2022-11-05T16:51:00.211Z,99152.56
2022-11-05T16:53:28.792Z,99147.19
2022-11-05T16:55:56.659Z,99157.00
2022-11-05T16:58:25.689Z,99156.38
2022-11-05T17:01:01.786Z,99155.37
2022-11-05T17:03:30.232Z,99157.09
2022-11-05T17:05:57.909Z,99156.78
2022-11-05T17:08:25.741Z,99160.47
2022-11-05T17:10:54.006Z,99168.91
2022-11-05T17:13:21.897Z,99171.00
2022-11-05T17:15:52.077Z,99172.91
2022-11-05T17:18:20.517Z,99173.56
2022-11-05T17:20:54.040Z,99168.50
2022-11-05T17:23:24.413Z,99166.12
2022-11-05T17:26:00.439Z,99168.94
2022-11-05T17:28:28.733Z,99165.47
2022-11-05T17:30:59.504Z,99170.87
2022-11-05T17:33:27.629Z,99163.47
2022-11-05T17:35:56.012Z,99176.16
2022-11-05T17:38:25.061Z,99170.50
2022-11-05T17:40:53.176Z,99166.44
2022-11-05T17:43:21.544Z,99172.59
2022-11-05T17:45:51.345Z,99180.22
2022-11-05T17:48:20.084Z,99190.06
2022-11-05T17:50:50.243Z,99197.28
2022-11-05T17:53:18.858Z,99193.47
2022-11-05T17:55:47.700Z,99193.94
2022-11-05T17:58:15.835Z,99201.13
2022-11-05T18:00:44.787Z,99205.69
2022-11-05T18:03:14.772Z,99208.94
2022-11-05T18:05:43.228Z,99206.75
2022-11-05T18:08:11.490Z,99214.38
2022-11-05T18:10:41.430Z,99218.50
2022-11-05T18:13:10.583Z,99217.44
2022-11-05T18:15:41.701Z,99226.03
2022-11-05T18:18:11.049Z,99225.19
2022-11-05T18:20:39.905Z,99224.00
2022-11-05T18:23:07.577Z,99224.13
2022-11-05T18:25:36.107Z,99226.81
2022-11-05T18:28:04.146Z,99225.50
2022-11-05T18:30:32.105Z,99227.19
2022-11-05T18:33:00.430Z,99232.50
2022-11-05T18:35:28.367Z,99233.47
2022-11-05T18:37:56.430Z,99238.72
2022-11-05T18:40:24.437Z,99246.22
2022-11-05T18:42:52.233Z,99241.81
2022-11-05T18:45:24.374Z,99250.47
2022-11-05T18:47:57.035Z,99254.53
2022-11-05T18:50:24.966Z,99261.78
2022-11-05T18:52:52.910Z,99254.63
2022-11-05T18:55:21.179Z,99258.62
2022-11-05T18:57:49.327Z,99260.19
2022-11-05T19:00:18.174Z,99256.53
2022-11-05T19:02:46.314Z,99264.75
2022-11-05T19:05:28.454Z,99271.06
2022-11-05T19:07:57.867Z,99259.00
2022-11-05T19:10:26.279Z,99265.56
2022-11-05T19:12:54.240Z,99270.06
2022-11-05T19:15:22.543Z,99267.84
2022-11-05T19:17:50.519Z,99280.00
2022-11-05T19:20:18.676Z,99278.16
2022-11-05T19:22:46.814Z,99284.09
2022-11-05T19:25:14.446Z,99293.81
2022-11-05T19:27:43.930Z,99294.81
2022-11-05T19:30:12.235Z,99296.41
2022-11-05T19:32:40.383Z,99307.03
2022-11-05T19:35:08.520Z,99306.50
2022-11-05T19:37:36.715Z,99313.59
2022-11-05T19:40:05.011Z,99318.75
2022-11-05T19:42:32.934Z,99324.13
2022-11-05T19:45:23.042Z,99322.37
2022-11-05T19:47:50.172Z,99325.53
2022-11-05T19:50:18.409Z,99333.72
2022-11-05T19:52:46.790Z,99342.94
2022-11-05T19:55:14.488Z,99350.72
2022-11-05T19:57:42.578Z,99350.56
2022-11-05T20:00:12.011Z,99356.25
2022-11-05T20:02:43.150Z,99367.59
2022-11-05T20:05:14.747Z,99359.31
2022-11-05T20:07:42.456Z,99364.94
2022-11-05T20:10:11.515Z,99361.56
2022-11-05T20:12:39.561Z,99358.69
2022-11-05T20:15:08.303Z,99363.84
2022-11-05T20:17:35.985Z,99360.78
2022-11-05T20:20:05.792Z,99358.78
2022-11-05T20:22:33.922Z,99366.16
2022-11-05T20:25:02.118Z,99364.44
2022-11-05T20:27:30.246Z,99363.16
2022-11-05T20:29:58.338Z,99364.06
2022-11-05T20:32:26.143Z,99365.22
2022-11-05T20:34:54.382Z,99379.88
2022-11-05T20:37:22.023Z,99377.50
2022-11-05T20:39:50.070Z,99379.88
2022-11-05T20:42:18.200Z,99381.28
2022-11-05T20:44:46.065Z,99377.91
2022-11-05T20:47:13.819Z,99382.00
2022-11-05T20:49:42.088Z,99381.75
2022-11-05T20:52:17.280Z,99386.34
2022-11-05T20:54:46.537Z,99391.22
2022-11-05T20:57:14.314Z,99384.97
2022-11-05T20:59:42.114Z,99393.59
2022-11-05T21:02:11.448Z,99396.47
2022-11-05T21:04:40.212Z,99399.34
2022-11-05T21:07:08.238Z,99403.06
2022-11-05T21:09:36.285Z,99411.00
2022-11-05T21:12:04.259Z,99403.94
2022-11-05T21:14:32.122Z,99404.44
2022-11-05T21:17:00.300Z,99404.75
2022-11-05T21:19:30.863Z,99410.00
2022-11-05T21:21:58.725Z,99401.16
2022-11-05T21:24:26.792Z,99407.53
2022-11-05T21:26:54.815Z,99398.47
2022-11-05T21:29:24.578Z,99406.44
2022-11-05T21:31:54.851Z,99414.87
2022-11-05T21:34:23.756Z,99404.84
2022-11-05T21:36:51.665Z,99414.78
2022-11-05T21:39:19.821Z,99408.41
2022-11-05T21:41:47.720Z,99414.09
2022-11-05T21:44:15.404Z,99413.87
2022-11-05T21:46:43.677Z,99424.31
2022-11-05T21:49:12.873Z,99425.12
2022-11-05T21:51:41.028Z,99422.75
2022-11-05T21:54:12.027Z,99418.97
2022-11-05T21:56:40.006Z,99424.63
2022-11-05T21:59:10.274Z,99424.44
2022-11-05T22:01:38.476Z,99418.25
2022-11-05T22:04:06.466Z,99419.75
2022-11-05T22:06:34.050Z,99421.06
2022-11-05T22:09:01.607Z,99422.34
2022-11-05T22:11:29.511Z,99421.06
2022-11-05T22:13:57.186Z,99424.81
2022-11-05T22:16:24.910Z,99424.03
2022-11-05T22:18:56.719Z,99426.72
2022-11-05T22:21:24.527Z,99424.44
2022-11-05T22:23:52.758Z,99426.03
2022-11-05T22:26:20.912Z,99435.75
2022-11-05T22:28:48.723Z,99431.00
2022-11-05T22:31:17.348Z,99434.66
2022-11-05T22:33:45.675Z,99424.94
2022-11-05T22:36:13.296Z,99434.19
2022-11-05T22:38:41.513Z,99427.81
2022-11-05T22:41:10.922Z,99431.59
2022-11-05T22:43:39.782Z,99435.97
2022-11-05T22:46:18.156Z,99440.12
2022-11-05T22:48:46.286Z,99436.97
2022-11-05T22:51:16.778Z,99435.84
2022-11-05T22:53:45.865Z,99436.16
2022-11-05T22:56:17.840Z,99434.03
2022-11-05T22:58:46.040Z,99432.31
2022-11-05T23:01:14.778Z,99434.47
2022-11-05T23:03:44.271Z,99440.94
2022-11-05T23:06:17.327Z,99444.03
2022-11-05T23:08:45.449Z,99446.91
2022-11-05T23:11:18.880Z,99447.81
2022-11-05T23:13:46.869Z,99448.00
2022-11-05T23:16:14.453Z,99448.59
2022-11-05T23:18:42.233Z,99444.31
2022-11-05T23:21:10.063Z,99445.22
2022-11-05T23:23:37.626Z,99444.03
2022-11-05T23:26:05.275Z,99450.28
2022-11-05T23:28:33.424Z,99459.22
2022-11-05T23:31:01.220Z,99454.75
2022-11-05T23:33:30.294Z,99458.44
2022-11-05T23:35:58.289Z,99458.34
2022-11-05T23:38:26.052Z,99456.34
2022-11-05T23:40:53.709Z,99458.94
2022-11-05T23:43:21.623Z,99456.50
2022-11-05T23:45:49.491Z,99462.41
2022-11-05T23:48:29.141Z,99456.44
2022-11-05T23:51:08.889Z,99459.22
2022-11-05T23:53:38.928Z,99457.34
2022-11-05T23:56:09.503Z,99462.03
2022-11-05T23:58:38.532Z,99465.41
